Time;durP1;ratioP1;P1;durP2;ratioP2;P2;SDS_P1;SDS_P2;PMS_P1;PMS_P2;Temp;Humidity;BMP_temperature;BMP_pressure;BME280_temperature;BME280_humidity;BME280_pressure;Samples;Min_cycle;Max_cycle;Signal;HPM_P1;HPM_P2
2021/06/02 00:01:59;;;;;;;7.47;3.80;;;;;;;;;;4420406;32;20268;-74
2021/06/02 00:04:32;;;;;;;6.12;4.05;;;;;;;;;;4405860;32;20626;-72
2021/06/02 00:06:58;;;;;;;4.85;3.83;;;;;;;;;;4418903;32;20484;-72
2021/06/02 00:09:24;;;;;;;6.43;3.25;;;;;;;;;;4419327;32;20554;-73
2021/06/02 00:11:50;;;;;;;5.05;3.90;;;;;;;;;;4419562;32;20203;-74
2021/06/02 00:14:16;;;;;;;5.53;3.50;;;;;;;;;;4421247;32;20482;-73
2021/06/02 00:16:42;;;;;;;6.25;3.75;;;;;;;;;;4420094;32;20191;-73
2021/06/02 00:19:08;;;;;;;6.68;3.35;;;;;;;;;;4421327;32;20453;-73
2021/06/02 00:21:33;;;;;;;7.18;4.00;;;;;;;;;;4419888;32;20145;-72
2021/06/02 00:23:58;;;;;;;7.05;3.92;;;;;;;;;;4406753;32;20165;-73
2021/06/02 00:26:24;;;;;;;4.85;3.87;;;;;;;;;;4421383;32;20681;-73
2021/06/02 00:28:49;;;;;;;6.62;3.90;;;;;;;;;;4420800;32;20190;-72
2021/06/02 00:31:15;;;;;;;7.68;4.45;;;;;;;;;;4431695;32;20141;-73
2021/06/02 00:33:40;;;;;;;6.78;4.32;;;;;;;;;;4422130;32;20168;-73
2021/06/02 00:36:06;;;;;;;7.28;4.00;;;;;;;;;;4436010;32;20129;-73
2021/06/02 00:38:32;;;;;;;6.10;4.05;;;;;;;;;;4422455;32;20564;-73
2021/06/02 00:40:58;;;;;;;7.75;4.78;;;;;;;;;;4434396;32;20130;-72
2021/06/02 00:43:23;;;;;;;5.90;4.18;;;;;;;;;;4435885;32;20156;-73
2021/06/02 00:45:48;;;;;;;7.35;4.30;;;;;;;;;;4436347;32;20449;-73
2021/06/02 00:48:15;;;;;;;8.38;4.70;;;;;;;;;;4434589;32;20566;-73
2021/06/02 00:50:44;;;;;;;6.40;4.90;;;;;;;;;;4420335;32;20249;-73
2021/06/02 00:53:09;;;;;;;8.02;4.35;;;;;;;;;;4435206;32;20133;-72
2021/06/02 00:55:35;;;;;;;7.35;4.40;;;;;;;;;;4433895;32;20129;-72
2021/06/02 00:58:01;;;;;;;7.50;4.62;;;;;;;;;;4420153;32;20677;-73
2021/06/02 01:00:26;;;;;;;5.78;4.62;;;;;;;;;;4435726;32;20169;-73
2021/06/02 01:02:52;;;;;;;7.32;4.45;;;;;;;;;;4420397;32;20210;-72
2021/06/02 01:05:20;;;;;;;7.57;5.15;;;;;;;;;;4435896;32;20492;-73
2021/06/02 01:07:45;;;;;;;5.80;4.50;;;;;;;;;;4435275;32;20169;-73
2021/06/02 01:10:12;;;;;;;7.45;4.70;;;;;;;;;;4424695;32;20173;-72
2021/06/02 01:12:39;;;;;;;5.45;4.60;;;;;;;;;;4425082;32;20191;-73
2021/06/02 01:15:04;;;;;;;6.72;4.70;;;;;;;;;;4439072;32;20252;-72
2021/06/02 01:17:31;;;;;;;5.72;4.30;;;;;;;;;;4440748;32;20134;-72
2021/06/02 01:19:57;;;;;;;8.77;4.90;;;;;;;;;;4440583;32;20164;-73
2021/06/02 01:22:23;;;;;;;5.68;4.80;;;;;;;;;;4439148;32;20164;-73
2021/06/02 01:24:48;;;;;;;6.80;4.80;;;;;;;;;;4439355;32;20132;-72
2021/06/02 01:27:13;;;;;;;8.70;5.28;;;;;;;;;;4440558;32;20181;-73
2021/06/02 01:29:42;;;;;;;8.05;5.18;;;;;;;;;;4440337;32;20539;-72
2021/06/02 01:32:25;;;;;;;7.80;5.00;;;;;;;;;;4438602;32;20137;-72
2021/06/02 01:34:50;;;;;;;7.82;5.00;;;;;;;;;;4439054;32;20190;-72
2021/06/02 01:37:27;;;;;;;6.95;5.37;;;;;;;;;;4439824;32;20134;-73
2021/06/02 01:40:00;;;;;;;7.05;5.78;;;;;;;;;;4439586;32;20424;-74
2021/06/02 01:42:41;;;;;;;8.18;5.62;;;;;;;;;;4440945;32;20215;-73
2021/06/02 01:45:19;;;;;;;7.60;5.60;;;;;;;;;;4425143;32;20278;-74
2021/06/02 01:48:02;;;;;;;8.50;5.87;;;;;;;;;;4439574;32;20203;-73
2021/06/02 01:50:31;;;;;;;9.82;6.30;;;;;;;;;;4425171;32;20484;-74
2021/06/02 01:52:59;;;;;;;7.75;6.28;;;;;;;;;;4424939;32;20218;-72
2021/06/02 01:55:30;;;;;;;10.73;6.93;;;;;;;;;;4424737;32;20551;-73
2021/06/02 01:58:05;;;;;;;9.77;6.10;;;;;;;;;;4424814;32;20211;-73
2021/06/02 02:00:43;;;;;;;12.60;7.12;;;;;;;;;;4439712;32;20160;-73
2021/06/02 02:03:24;;;;;;;10.07;6.78;;;;;;;;;;4440417;32;20149;-73
2021/06/02 02:05:49;;;;;;;14.38;6.95;;;;;;;;;;4439082;32;20527;-73
2021/06/02 02:08:14;;;;;;;9.52;6.70;;;;;;;;;;4439172;32;20133;-73
2021/06/02 02:10:44;;;;;;;10.17;6.43;;;;;;;;;;4424359;32;20162;-73
2021/06/02 02:13:28;;;;;;;9.70;7.25;;;;;;;;;;4439114;32;20300;-72
2021/06/02 02:15:56;;;;;;;10.13;6.75;;;;;;;;;;4438324;32;20141;-72
2021/06/02 02:18:30;;;;;;;9.43;6.62;;;;;;;;;;4438933;32;20126;-73
2021/06/02 02:21:10;;;;;;;11.20;7.35;;;;;;;;;;4436972;32;20194;-73
2021/06/02 02:23:39;;;;;;;12.95;8.40;;;;;;;;;;4436944;32;20133;-74
2021/06/02 02:26:19;;;;;;;12.55;7.68;;;;;;;;;;4437000;32;20149;-73
2021/06/02 02:28:44;;;;;;;12.75;7.97;;;;;;;;;;4437572;32;20193;-73
2021/06/02 02:31:21;;;;;;;13.52;8.55;;;;;;;;;;4436205;32;20133;-73
2021/06/02 02:33:46;;;;;;;12.07;8.30;;;;;;;;;;4437602;32;20141;-72
2021/06/02 02:36:11;;;;;;;11.07;8.02;;;;;;;;;;4435663;32;20138;-71
2021/06/02 02:38:47;;;;;;;10.70;7.82;;;;;;;;;;4437600;32;20134;-73
2021/06/02 02:41:18;;;;;;;11.85;7.95;;;;;;;;;;4437379;32;20259;-73
2021/06/02 02:43:56;;;;;;;12.82;8.73;;;;;;;;;;4435923;32;20172;-73
2021/06/02 02:46:24;;;;;;;12.35;8.73;;;;;;;;;;4435992;32;20532;-74
2021/06/02 02:49:08;;;;;;;16.33;9.50;;;;;;;;;;4435831;32;20141;-73
2021/06/02 02:51:39;;;;;;;14.02;9.38;;;;;;;;;;4436249;32;20286;-73
2021/06/02 02:54:08;;;;;;;13.38;9.00;;;;;;;;;;4435962;32;20171;-72
2021/06/02 02:56:48;;;;;;;13.02;8.50;;;;;;;;;;4436230;32;20261;-72
2021/06/02 02:59:30;;;;;;;14.65;9.50;;;;;;;;;;4422442;32;20222;-72
2021/06/02 03:01:58;;;;;;;14.35;9.80;;;;;;;;;;4435719;32;20195;-73
2021/06/02 03:04:27;;;;;;;14.48;9.57;;;;;;;;;;4421939;32;20157;-73
2021/06/02 03:06:54;;;;;;;13.70;9.55;;;;;;;;;;4437243;32;20160;-73
2021/06/02 03:09:49;;;;;;;12.65;9.57;;;;;;;;;;4421435;32;20188;-75
2021/06/02 03:12:26;;;;;;;13.95;9.43;;;;;;;;;;4419666;32;20219;-73
2021/06/02 03:14:57;;;;;;;17.35;10.50;;;;;;;;;;4436173;32;20580;-73
2021/06/02 03:17:40;;;;;;;14.60;9.82;;;;;;;;;;4435551;32;20183;-73
2021/06/02 03:20:25;;;;;;;17.17;10.70;;;;;;;;;;4436175;32;20153;-73
2021/06/02 03:22:51;;;;;;;18.90;10.52;;;;;;;;;;4437589;32;20130;-73
2021/06/02 03:25:24;;;;;;;12.10;9.63;;;;;;;;;;4435679;32;20156;-73
2021/06/02 03:27:55;;;;;;;14.13;10.15;;;;;;;;;;4437192;32;20137;-73
2021/06/02 03:30:26;;;;;;;18.52;10.10;;;;;;;;;;4421753;32;20165;-73
2021/06/02 03:33:10;;;;;;;13.48;9.70;;;;;;;;;;4435307;32;20195;-73
2021/06/02 03:36:14;;;;;;;15.88;9.38;;;;;;;;;;4435373;32;20499;-73
2021/06/02 03:38:58;;;;;;;16.35;9.68;;;;;;;;;;4358025;32;20159;-73
2021/06/02 03:41:23;;;;;;;16.05;9.85;;;;;;;;;;4358558;32;20181;-73
2021/06/02 03:43:50;;;;;;;13.93;9.63;;;;;;;;;;4394873;32;20194;-73
2021/06/02 03:46:34;;;;;;;20.88;10.10;;;;;;;;;;4421983;32;20237;-73
2021/06/02 03:48:59;;;;;;;17.50;10.02;;;;;;;;;;4407386;32;20161;-73
2021/06/02 03:51:30;;;;;;;18.17;10.52;;;;;;;;;;4420010;32;20226;-73
2021/06/02 03:54:13;;;;;;;13.73;9.52;;;;;;;;;;4421606;32;20225;-73
2021/06/02 03:56:41;;;;;;;12.37;9.13;;;;;;;;;;4406277;32;20157;-72
2021/06/02 03:59:13;;;;;;;17.23;10.60;;;;;;;;;;4419932;32;20522;-72
2021/06/02 04:01:41;;;;;;;16.33;9.60;;;;;;;;;;4419370;32;20134;-72
2021/06/02 04:04:16;;;;;;;14.93;10.10;;;;;;;;;;4421203;32;20154;-72
2021/06/02 04:06:45;;;;;;;17.00;11.68;;;;;;;;;;4422118;32;20239;-74
2021/06/02 04:09:12;;;;;;;18.27;10.90;;;;;;;;;;4438059;32;20208;-73
2021/06/02 04:11:56;;;;;;;17.02;10.93;;;;;;;;;;4421769;32;20165;-73
2021/06/02 04:14:27;;;;;;;15.95;10.55;;;;;;;;;;4435567;32;20515;-73
2021/06/02 04:16:53;;;;;;;16.92;10.90;;;;;;;;;;4436089;32;20137;-73
2021/06/02 04:19:19;;;;;;;16.42;10.82;;;;;;;;;;4436141;32;20437;-72
2021/06/02 04:21:45;;;;;;;16.37;9.95;;;;;;;;;;4435494;32;20165;-73
2021/06/02 04:24:12;;;;;;;16.02;10.88;;;;;;;;;;4419836;32;20654;-73
2021/06/02 04:26:37;;;;;;;18.15;11.38;;;;;;;;;;4419265;32;20158;-73
2021/06/02 04:29:08;;;;;;;18.25;11.23;;;;;;;;;;4421246;32;20292;-74
2021/06/02 04:31:34;;;;;;;18.12;11.63;;;;;;;;;;4406220;32;20150;-73
2021/06/02 04:34:00;;;;;;;16.90;10.90;;;;;;;;;;4421227;32;20198;-72
2021/06/02 04:36:26;;;;;;;13.30;10.25;;;;;;;;;;4419259;32;20516;-72
2021/06/02 04:38:55;;;;;;;15.35;10.95;;;;;;;;;;4419243;32;20130;-73
2021/06/02 04:41:21;;;;;;;17.20;11.48;;;;;;;;;;4420408;32;20130;-73
2021/06/02 04:43:47;;;;;;;16.62;11.40;;;;;;;;;;4420191;32;20530;-73
2021/06/02 04:46:12;;;;;;;16.70;11.70;;;;;;;;;;4420200;32;20153;-73
2021/06/02 04:48:37;;;;;;;17.47;11.97;;;;;;;;;;4435375;32;20516;-73
2021/06/02 04:51:22;;;;;;;17.42;11.98;;;;;;;;;;4434989;32;20251;-73
2021/06/02 04:54:03;;;;;;;16.23;10.95;;;;;;;;;;4435942;32;20216;-73
2021/06/02 04:56:42;;;;;;;18.67;11.73;;;;;;;;;;4434894;32;20499;-73
2021/06/02 04:59:16;;;;;;;16.50;11.55;;;;;;;;;;4435058;32;20176;-73
2021/06/02 05:01:41;;;;;;;18.65;11.25;;;;;;;;;;4434416;32;20199;-73
2021/06/02 05:04:25;;;;;;;18.17;11.63;;;;;;;;;;4436063;32;20577;-73
2021/06/02 05:07:02;;;;;;;17.17;11.35;;;;;;;;;;4434198;32;20263;-73
2021/06/02 05:09:46;;;;;;;19.87;12.85;;;;;;;;;;4434435;32;20140;-73
2021/06/02 05:12:26;;;;;;;17.80;11.90;;;;;;;;;;4435569;32;20141;-73
2021/06/02 05:14:51;;;;;;;17.83;11.88;;;;;;;;;;4434060;32;20504;-72
2021/06/02 05:17:43;;;;;;;18.02;11.63;;;;;;;;;;4434396;32;20134;-72
2021/06/02 05:20:38;;;;;;;21.27;11.90;;;;;;;;;;4407864;32;20181;-72
2021/06/02 05:23:03;;;;;;;16.95;11.63;;;;;;;;;;4414273;32;20161;-74
2021/06/02 05:25:47;;;;;;;17.77;11.88;;;;;;;;;;4415296;32;20615;-73
2021/06/02 05:28:32;;;;;;;15.73;11.32;;;;;;;;;;4411676;32;20415;-73
2021/06/02 05:31:03;;;;;;;18.40;12.27;;;;;;;;;;4424515;32;20171;-72
2021/06/02 05:33:37;;;;;;;18.45;12.00;;;;;;;;;;4423052;32;20550;-72
2021/06/02 05:36:21;;;;;;;16.85;11.38;;;;;;;;;;4411037;32;20342;-73
2021/06/02 05:38:51;;;;;;;16.08;10.90;;;;;;;;;;4423971;32;20252;-73
2021/06/02 05:41:36;;;;;;;17.65;12.32;;;;;;;;;;4425927;32;20145;-72
2021/06/02 05:44:07;;;;;;;19.90;12.07;;;;;;;;;;4407034;32;20161;-73
2021/06/02 05:46:51;;;;;;;16.20;11.32;;;;;;;;;;4429312;32;20229;-73
2021/06/02 05:49:39;;;;;;;15.93;11.07;;;;;;;;;;4416964;32;20165;-73
2021/06/02 05:52:14;;;;;;;22.42;12.98;;;;;;;;;;4423206;32;20212;-73
2021/06/02 05:54:51;;;;;;;19.00;12.32;;;;;;;;;;4419792;32;20138;-71
2021/06/02 05:57:35;;;;;;;17.00;11.50;;;;;;;;;;4429089;32;20590;-73
2021/06/02 06:00:18;;;;;;;19.48;12.93;;;;;;;;;;4433319;32;20141;-72
2021/06/02 06:03:02;;;;;;;17.23;11.95;;;;;;;;;;4436167;32;20160;-72
2021/06/02 06:05:28;;;;;;;15.70;11.52;;;;;;;;;;4431896;32;20177;-74
2021/06/02 06:08:22;;;;;;;18.85;12.02;;;;;;;;;;4424278;32;20154;-74
2021/06/02 06:10:54;;;;;;;19.62;12.20;;;;;;;;;;4360224;32;20162;-74
2021/06/02 06:13:28;;;;;;;14.90;11.43;;;;;;;;;;4416495;32;20526;-74
2021/06/02 06:16:05;;;;;;;16.12;10.77;;;;;;;;;;4425941;32;20153;-73
2021/06/02 06:18:49;;;;;;;16.77;11.55;;;;;;;;;;4429265;32;20222;-74
2021/06/02 06:21:26;;;;;;;18.20;12.32;;;;;;;;;;4414218;32;20196;-73
2021/06/02 06:23:56;;;;;;;19.33;12.35;;;;;;;;;;4421906;32;20423;-73
2021/06/02 06:26:36;;;;;;;17.52;12.18;;;;;;;;;;4416601;32;20169;-74
2021/06/02 06:29:04;;;;;;;18.73;12.48;;;;;;;;;;4423664;32;20188;-74
2021/06/02 06:31:34;;;;;;;18.08;12.13;;;;;;;;;;4427625;32;20142;-73
2021/06/02 06:34:04;;;;;;;16.70;11.88;;;;;;;;;;4435277;32;20149;-74
2021/06/02 06:36:32;;;;;;;18.65;12.23;;;;;;;;;;4422540;32;20137;-74
2021/06/02 06:39:05;;;;;;;16.33;12.68;;;;;;;;;;4417810;32;20196;-74
2021/06/02 06:41:32;;;;;;;22.85;13.10;;;;;;;;;;4430832;32;20141;-73
2021/06/02 06:43:58;;;;;;;16.92;12.43;;;;;;;;;;4429066;32;20175;-73
2021/06/02 06:46:24;;;;;;;17.67;12.95;;;;;;;;;;4414529;32;20579;-73
2021/06/02 06:48:50;;;;;;;19.27;12.65;;;;;;;;;;4432424;32;20204;-74
2021/06/02 06:51:19;;;;;;;30.37;13.18;;;;;;;;;;4429753;32;20188;-74
2021/06/02 06:53:45;;;;;;;22.33;13.00;;;;;;;;;;4423717;32;20177;-72
2021/06/02 06:56:11;;;;;;;21.98;12.52;;;;;;;;;;4426466;32;20161;-73
2021/06/02 06:58:36;;;;;;;20.10;13.82;;;;;;;;;;4425805;32;20469;-73
2021/06/02 07:01:01;;;;;;;18.08;12.30;;;;;;;;;;4427843;32;20145;-73
2021/06/02 07:03:27;;;;;;;22.08;13.02;;;;;;;;;;4427138;32;20153;-73
2021/06/02 07:05:53;;;;;;;22.42;13.50;;;;;;;;;;4428082;32;20150;-74
2021/06/02 07:08:19;;;;;;;19.48;12.52;;;;;;;;;;4413254;32;20219;-72
2021/06/02 07:10:44;;;;;;;16.08;11.32;;;;;;;;;;4431995;32;20185;-73
2021/06/02 07:13:10;;;;;;;18.10;11.55;;;;;;;;;;4429952;32;20205;-72
2021/06/02 07:15:35;;;;;;;18.35;11.70;;;;;;;;;;4432004;32;20237;-72
2021/06/02 07:18:01;;;;;;;23.42;11.98;;;;;;;;;;4426860;32;20597;-73
2021/06/02 07:20:28;;;;;;;17.37;13.13;;;;;;;;;;4431301;32;20589;-74
2021/06/02 07:22:54;;;;;;;23.08;13.05;;;;;;;;;;4423089;32;20222;-73
2021/06/02 07:25:20;;;;;;;16.50;11.32;;;;;;;;;;4424458;32;20532;-73
2021/06/02 07:27:46;;;;;;;18.52;12.20;;;;;;;;;;4424151;32;20209;-74
2021/06/02 07:30:11;;;;;;;22.50;12.95;;;;;;;;;;4427188;32;20574;-73
2021/06/02 07:32:37;;;;;;;18.73;11.70;;;;;;;;;;4434134;32;20141;-73
2021/06/02 07:35:02;;;;;;;17.20;12.18;;;;;;;;;;4430097;32;20170;-73
2021/06/02 07:37:27;;;;;;;18.65;13.05;;;;;;;;;;4413950;32;20204;-74
2021/06/02 07:39:52;;;;;;;18.60;12.27;;;;;;;;;;4411096;32;20569;-73
2021/06/02 07:42:17;;;;;;;17.87;11.43;;;;;;;;;;4428548;32;20267;-71
2021/06/02 07:44:43;;;;;;;20.62;12.13;;;;;;;;;;4425637;32;20638;-72
2021/06/02 07:47:08;;;;;;;17.00;11.00;;;;;;;;;;4407604;32;20392;-73
2021/06/02 07:49:34;;;;;;;15.00;10.40;;;;;;;;;;4411691;32;20301;-72
2021/06/02 07:52:02;;;;;;;14.65;10.75;;;;;;;;;;4426762;32;20558;-72
2021/06/02 07:54:27;;;;;;;22.85;12.07;;;;;;;;;;4425416;32;20223;-72
2021/06/02 07:56:53;;;;;;;19.08;10.80;;;;;;;;;;4421792;32;20146;-73
2021/06/02 07:59:18;;;;;;;16.08;11.27;;;;;;;;;;4418124;32;20164;-73
2021/06/02 08:01:44;;;;;;;16.12;11.20;;;;;;;;;;4430635;32;20685;-73
2021/06/02 08:04:09;;;;;;;16.67;11.30;;;;;;;;;;4427008;32;20169;-72
2021/06/02 08:06:36;;;;;;;19.75;11.07;;;;;;;;;;4424071;32;20193;-73
2021/06/02 08:09:02;;;;;;;17.30;11.38;;;;;;;;;;4426118;32;20133;-73
2021/06/02 08:11:27;;;;;;;19.37;11.38;;;;;;;;;;4433556;32;20196;-72
2021/06/02 08:13:52;;;;;;;16.08;11.27;;;;;;;;;;4425025;32;20550;-72
2021/06/02 08:16:17;;;;;;;17.12;12.32;;;;;;;;;;4412085;32;20188;-72
2021/06/02 08:18:42;;;;;;;20.90;12.20;;;;;;;;;;4428609;32;20177;-71
2021/06/02 08:21:08;;;;;;;16.65;12.13;;;;;;;;;;4418100;32;20166;-71
2021/06/02 08:23:33;;;;;;;14.18;11.45;;;;;;;;;;4423817;32;20242;-71
2021/06/02 08:25:58;;;;;;;19.20;11.88;;;;;;;;;;4425874;32;20196;-71
2021/06/02 08:28:24;;;;;;;18.03;11.57;;;;;;;;;;4424978;32;20230;-72
2021/06/02 08:30:49;;;;;;;17.83;11.95;;;;;;;;;;4409983;32;20579;-71
2021/06/02 08:33:14;;;;;;;16.02;12.60;;;;;;;;;;4425922;32;20177;-72
2021/06/02 08:35:39;;;;;;;19.08;12.43;;;;;;;;;;4427107;32;20142;-72
2021/06/02 08:38:05;;;;;;;16.02;10.98;;;;;;;;;;4428172;32;20462;-72
2021/06/02 08:40:30;;;;;;;15.35;10.82;;;;;;;;;;4427872;32;20177;-73
2021/06/02 08:42:55;;;;;;;18.57;12.03;;;;;;;;;;4408818;32;20217;-73
2021/06/02 08:45:20;;;;;;;17.00;10.90;;;;;;;;;;4425926;32;20727;-72
2021/06/02 08:47:48;;;;;;;15.63;10.20;;;;;;;;;;4425732;32;20153;-72
2021/06/02 08:50:13;;;;;;;13.25;10.38;;;;;;;;;;4425966;32;20191;-72
2021/06/02 08:52:39;;;;;;;15.25;10.75;;;;;;;;;;4428800;32;20539;-72
2021/06/02 08:55:06;;;;;;;16.67;11.00;;;;;;;;;;4429626;32;20559;-72
2021/06/02 08:57:31;;;;;;;10.15;8.85;;;;;;;;;;4420096;32;20153;-72
2021/06/02 08:59:57;;;;;;;14.43;9.10;;;;;;;;;;4426569;32;20199;-72
2021/06/02 09:02:22;;;;;;;12.02;9.05;;;;;;;;;;4420164;32;20234;-72
2021/06/02 09:04:47;;;;;;;11.52;8.70;;;;;;;;;;4422564;32;20178;-72
2021/06/02 09:07:14;;;;;;;16.83;9.83;;;;;;;;;;4426210;32;20170;-72
2021/06/02 09:09:39;;;;;;;12.65;8.35;;;;;;;;;;4410190;32;20265;-72
2021/06/02 09:12:06;;;;;;;12.10;8.05;;;;;;;;;;4402097;32;20332;-71
2021/06/02 09:14:37;;;;;;;12.68;7.53;;;;;;;;;;4423924;32;20554;-71
2021/06/02 09:17:04;;;;;;;18.90;8.32;;;;;;;;;;4425378;32;20146;-72
2021/06/02 09:19:32;;;;;;;9.85;7.60;;;;;;;;;;4428312;32;20192;-71
2021/06/02 09:21:57;;;;;;;16.60;10.25;;;;;;;;;;4432685;32;20215;-72
2021/06/02 09:24:42;;;;;;;10.82;8.60;;;;;;;;;;4433979;32;20158;-72
2021/06/02 09:27:08;;;;;;;10.95;7.60;;;;;;;;;;4419374;32;20226;-72
2021/06/02 09:29:47;;;;;;;9.57;7.67;;;;;;;;;;4418122;32;20145;-71
2021/06/02 09:32:15;;;;;;;13.18;7.93;;;;;;;;;;4424037;32;20289;-71
2021/06/02 09:34:40;;;;;;;13.20;8.25;;;;;;;;;;4416461;32;20164;-72
2021/06/02 09:37:06;;;;;;;12.75;9.23;;;;;;;;;;4431370;32;20691;-72
2021/06/02 09:39:37;;;;;;;11.43;8.15;;;;;;;;;;4438872;32;20162;-72
2021/06/02 09:42:16;;;;;;;20.25;11.23;;;;;;;;;;4433342;32;20544;-72
2021/06/02 09:44:41;;;;;;;12.93;8.73;;;;;;;;;;4433043;32;20137;-72
2021/06/02 09:47:07;;;;;;;10.05;8.02;;;;;;;;;;4410215;32;20282;-71
2021/06/02 09:49:51;;;;;;;15.93;7.47;;;;;;;;;;4435510;32;20428;-72
2021/06/02 09:52:17;;;;;;;11.18;8.13;;;;;;;;;;4425809;32;20161;-71
2021/06/02 09:54:43;;;;;;;11.73;8.38;;;;;;;;;;4427813;32;20164;-72
2021/06/02 09:57:12;;;;;;;9.82;7.25;;;;;;;;;;4415059;32;20260;-71
2021/06/02 09:59:57;;;;;;;11.48;7.28;;;;;;;;;;4421275;32;20543;-72
2021/06/02 10:02:22;;;;;;;10.57;6.00;;;;;;;;;;4418315;32;20187;-71
2021/06/02 10:04:57;;;;;;;16.40;5.87;;;;;;;;;;4433588;32;20142;-71
2021/06/02 10:07:22;;;;;;;8.68;5.95;;;;;;;;;;4437829;32;20145;-72
2021/06/02 10:09:48;;;;;;;9.65;5.28;;;;;;;;;;4436336;32;20247;-72
2021/06/02 10:12:13;;;;;;;9.20;4.57;;;;;;;;;;4427916;32;20141;-72
2021/06/02 10:14:39;;;;;;;7.55;5.15;;;;;;;;;;4429579;32;20234;-72
2021/06/02 10:17:23;;;;;;;4.93;4.10;;;;;;;;;;4426678;32;20207;-72
2021/06/02 10:19:48;;;;;;;7.97;4.62;;;;;;;;;;4430938;32;20165;-72
2021/06/02 10:22:17;;;;;;;7.77;4.63;;;;;;;;;;4435407;32;20478;-72
2021/06/02 10:24:42;;;;;;;5.32;3.90;;;;;;;;;;4430093;32;20298;-72
2021/06/02 10:27:08;;;;;;;5.80;4.05;;;;;;;;;;4431954;32;20154;-72
2021/06/02 10:29:33;;;;;;;7.87;4.68;;;;;;;;;;4433236;32;20321;-72
2021/06/02 10:31:58;;;;;;;5.85;4.00;;;;;;;;;;4416036;32;20165;-71
2021/06/02 10:34:23;;;;;;;5.90;3.87;;;;;;;;;;4434114;32;20145;-72
2021/06/02 10:36:48;;;;;;;7.57;3.60;;;;;;;;;;4434975;32;20318;-72
2021/06/02 10:39:14;;;;;;;5.78;3.67;;;;;;;;;;4428674;32;20172;-71
2021/06/02 10:41:45;;;;;;;5.75;4.12;;;;;;;;;;4428799;32;20198;-71
2021/06/02 10:44:11;;;;;;;8.10;3.62;;;;;;;;;;4429183;32;20213;-71
2021/06/02 10:46:44;;;;;;;5.75;3.67;;;;;;;;;;4425978;32;20146;-72
2021/06/02 10:49:10;;;;;;;4.20;3.17;;;;;;;;;;4424944;32;20193;-71
2021/06/02 10:51:36;;;;;;;6.85;3.47;;;;;;;;;;4426773;32;20216;-72
2021/06/02 10:54:13;;;;;;;3.95;3.30;;;;;;;;;;4429776;32;20145;-71
2021/06/02 10:56:39;;;;;;;9.10;4.03;;;;;;;;;;4423194;32;20157;-71
2021/06/02 10:59:40;;;;;;;8.70;4.35;;;;;;;;;;4427671;32;20249;-71
2021/06/02 11:02:11;;;;;;;8.45;3.55;;;;;;;;;;4361519;32;20223;-70
2021/06/02 11:04:41;;;;;;;7.60;3.35;;;;;;;;;;4417550;32;20433;-71
2021/06/02 11:07:14;;;;;;;6.43;3.53;;;;;;;;;;4420579;32;20149;-71
2021/06/02 11:09:55;;;;;;;4.80;3.60;;;;;;;;;;4430742;32;20196;-71
2021/06/02 11:12:22;;;;;;;6.45;3.30;;;;;;;;;;4430596;32;20141;-71
2021/06/02 11:14:47;;;;;;;8.75;3.87;;;;;;;;;;4430589;32;20497;-72
2021/06/02 11:17:13;;;;;;;8.90;3.70;;;;;;;;;;4429925;32;20194;-71
2021/06/02 11:19:42;;;;;;;4.78;3.15;;;;;;;;;;4431011;32;20611;-72
2021/06/02 11:22:08;;;;;;;6.60;3.80;;;;;;;;;;4428917;32;20238;-72
2021/06/02 11:24:34;;;;;;;5.03;2.92;;;;;;;;;;4426181;32;20157;-72
2021/06/02 11:27:06;;;;;;;20.65;4.15;;;;;;;;;;4414672;32;20162;-72
2021/06/02 11:29:33;;;;;;;5.55;3.50;;;;;;;;;;4426799;32;20152;-72
2021/06/02 11:32:13;;;;;;;5.28;3.58;;;;;;;;;;4431069;32;20145;-71
2021/06/02 11:34:38;;;;;;;3.70;2.97;;;;;;;;;;4424517;32;20150;-71
2021/06/02 11:37:05;;;;;;;6.47;3.15;;;;;;;;;;4431084;32;20420;-72
2021/06/02 11:39:30;;;;;;;5.00;2.78;;;;;;;;;;4426268;32;20202;-72
2021/06/02 11:41:58;;;;;;;3.97;2.80;;;;;;;;;;4427437;32;20137;-71
2021/06/02 11:44:27;;;;;;;4.70;4.10;;;;;;;;;;4407959;32;20189;-72
2021/06/02 11:46:52;;;;;;;4.68;3.30;;;;;;;;;;4430999;32;20608;-72
2021/06/02 11:49:24;;;;;;;4.57;2.80;;;;;;;;;;4429165;32;20138;-71
2021/06/02 11:51:49;;;;;;;5.87;2.55;;;;;;;;;;4419911;32;20141;-72
2021/06/02 11:54:15;;;;;;;10.63;3.40;;;;;;;;;;4409795;32;20188;-72
2021/06/02 11:56:40;;;;;;;4.47;2.80;;;;;;;;;;4426657;32;20581;-72
2021/06/02 11:59:05;;;;;;;4.60;2.72;;;;;;;;;;4415709;32;20239;-71
2021/06/02 12:01:30;;;;;;;4.93;2.62;;;;;;;;;;4427818;32;20203;-72
2021/06/02 12:03:56;;;;;;;5.93;2.70;;;;;;;;;;4406490;32;20157;-71
2021/06/02 12:06:32;;;;;;;3.90;3.03;;;;;;;;;;4423644;32;20237;-72
2021/06/02 12:08:57;;;;;;;5.55;2.90;;;;;;;;;;4428313;32;20145;-71
2021/06/02 12:11:23;;;;;;;5.63;2.90;;;;;;;;;;4426121;32;20161;-71
2021/06/02 12:13:48;;;;;;;6.60;3.35;;;;;;;;;;4412454;32;20268;-71
2021/06/02 12:16:21;;;;;;;9.45;3.35;;;;;;;;;;4426638;32;20563;-71
2021/06/02 12:18:47;;;;;;;7.53;3.45;;;;;;;;;;4424341;32;20158;-72
2021/06/02 12:21:17;;;;;;;7.10;2.92;;;;;;;;;;4418884;32;20215;-72
2021/06/02 12:23:46;;;;;;;3.28;2.50;;;;;;;;;;4425287;32;20487;-71
2021/06/02 12:26:22;;;;;;;4.45;2.67;;;;;;;;;;4417463;32;20708;-71
2021/06/02 12:28:47;;;;;;;5.43;2.70;;;;;;;;;;4430473;32;20218;-72
2021/06/02 12:31:31;;;;;;;11.43;3.40;;;;;;;;;;4433518;32;20482;-72
2021/06/02 12:34:02;;;;;;;3.60;2.92;;;;;;;;;;4428108;32;20600;-72
2021/06/02 12:36:27;;;;;;;4.65;3.00;;;;;;;;;;4425215;32;20176;-71
2021/06/02 12:38:53;;;;;;;2.42;2.22;;;;;;;;;;4432090;32;20149;-72
2021/06/02 12:41:23;;;;;;;5.60;2.70;;;;;;;;;;4418531;32;20165;-72
2021/06/02 12:43:49;;;;;;;4.75;2.87;;;;;;;;;;4418063;32;20208;-71
2021/06/02 12:46:16;;;;;;;3.67;3.03;;;;;;;;;;4423260;32;20677;-71
2021/06/02 12:48:42;;;;;;;7.00;3.20;;;;;;;;;;4431803;32;20169;-72
2021/06/02 12:51:09;;;;;;;18.87;3.28;;;;;;;;;;4415817;32;20199;-72
2021/06/02 12:53:36;;;;;;;6.20;2.92;;;;;;;;;;4407981;32;20231;-72
2021/06/02 12:56:01;;;;;;;11.48;6.12;;;;;;;;;;4433279;32;20141;-72
2021/06/02 12:58:30;;;;;;;4.37;2.55;;;;;;;;;;4430861;32;20298;-71
2021/06/02 13:00:59;;;;;;;5.12;2.62;;;;;;;;;;4434807;32;20164;-71
2021/06/02 13:03:24;;;;;;;6.90;2.95;;;;;;;;;;4433385;32;20168;-72
2021/06/02 13:05:49;;;;;;;7.35;3.03;;;;;;;;;;4431194;32;20157;-70
2021/06/02 13:08:15;;;;;;;6.87;2.78;;;;;;;;;;4432569;32;20565;-72
2021/06/02 13:10:41;;;;;;;7.65;3.20;;;;;;;;;;4432097;32;20202;-71
2021/06/02 13:13:08;;;;;;;4.28;3.37;;;;;;;;;;4413514;32;20161;-71
2021/06/02 13:15:40;;;;;;;7.87;3.40;;;;;;;;;;4419739;32;20513;-72
2021/06/02 13:18:06;;;;;;;3.97;2.75;;;;;;;;;;4412216;32;20622;-72
2021/06/02 13:20:33;;;;;;;8.00;3.80;;;;;;;;;;4418043;32;20134;-72
2021/06/02 13:23:10;;;;;;;6.90;2.97;;;;;;;;;;4417614;32;20204;-72
2021/06/02 13:25:36;;;;;;;6.68;2.83;;;;;;;;;;4417908;32;20222;-71
2021/06/02 13:28:02;;;;;;;6.93;2.60;;;;;;;;;;4424641;32;20146;-72
2021/06/02 13:30:37;;;;;;;4.57;2.47;;;;;;;;;;4423547;32;20153;-72
2021/06/02 13:33:02;;;;;;;6.45;3.00;;;;;;;;;;4418972;32;20141;-71
2021/06/02 13:35:27;;;;;;;8.80;3.23;;;;;;;;;;4427306;32;20177;-71
2021/06/02 13:37:53;;;;;;;5.03;2.80;;;;;;;;;;4410538;32;20260;-73
2021/06/02 13:40:20;;;;;;;4.93;2.80;;;;;;;;;;4433094;32;20485;-72
2021/06/02 13:43:21;;;;;;;6.55;2.90;;;;;;;;;;4427780;32;20276;-74
2021/06/02 13:45:58;;;;;;;3.05;2.17;;;;;;;;;;4371664;32;20225;-74
2021/06/02 13:48:30;;;;;;;3.03;2.40;;;;;;;;;;4419427;32;20153;-74
2021/06/02 13:51:15;;;;;;;3.92;2.50;;;;;;;;;;4428437;32;20153;-75
2021/06/02 13:53:59;;;;;;;3.05;2.67;;;;;;;;;;4423773;32;20196;-75
2021/06/02 13:56:25;;;;;;;3.05;2.75;;;;;;;;;;4422500;32;20208;-74
2021/06/02 13:59:10;;;;;;;4.75;2.90;;;;;;;;;;4427506;32;20168;-75
2021/06/02 14:01:36;;;;;;;2.80;2.37;;;;;;;;;;4417305;32;20263;-74
2021/06/02 14:04:02;;;;;;;6.47;2.90;;;;;;;;;;4419985;32;20157;-75
2021/06/02 14:06:27;;;;;;;4.18;2.25;;;;;;;;;;4419546;32;20236;-75
2021/06/02 14:08:52;;;;;;;3.87;2.50;;;;;;;;;;4426682;32;20149;-75
2021/06/02 14:11:22;;;;;;;5.20;2.72;;;;;;;;;;4421989;32;20271;-74
2021/06/02 14:13:47;;;;;;;5.03;3.10;;;;;;;;;;4422658;32;20185;-75
2021/06/02 14:16:12;;;;;;;6.50;3.42;;;;;;;;;;4419319;32;20539;-75
2021/06/02 14:18:37;;;;;;;5.40;3.50;;;;;;;;;;4420752;32;20134;-75
2021/06/02 14:21:03;;;;;;;5.00;3.37;;;;;;;;;;4420257;32;21097;-75
2021/06/02 14:23:28;;;;;;;10.48;3.40;;;;;;;;;;4431708;32;20175;-75
2021/06/02 14:25:53;;;;;;;3.83;2.87;;;;;;;;;;4424441;32;20184;-74
2021/06/02 14:28:18;;;;;;;5.33;2.83;;;;;;;;;;4421893;32;20194;-74
2021/06/02 14:30:43;;;;;;;4.07;2.87;;;;;;;;;;4421402;32;20442;-75
2021/06/02 14:33:08;;;;;;;4.00;2.53;;;;;;;;;;4407376;32;20154;-74
2021/06/02 14:35:34;;;;;;;3.22;2.72;;;;;;;;;;4423049;32;20166;-75
2021/06/02 14:38:00;;;;;;;5.50;2.50;;;;;;;;;;4423038;32;20749;-75
2021/06/02 14:40:26;;;;;;;2.72;2.22;;;;;;;;;;4447287;32;20225;-75
2021/06/02 14:42:51;;;;;;;4.87;2.35;;;;;;;;;;4452345;32;20280;-75
2021/06/02 14:45:17;;;;;;;4.10;2.30;;;;;;;;;;4446498;32;20215;-75
2021/06/02 14:47:42;;;;;;;5.20;2.30;;;;;;;;;;4427393;32;20253;-75